Terminal Aerodrome Forecast
Issued by NWS

Home | Current Version | Previous Version | Text Only | Print | Product List | Glossary On
Versions: 1 2 3 4 5 6 7 8 9 10 11 12 13 14 15 16
000
FTUS43 KDVN 201102 AAA
TAFBRL
TAF AMD
KBRL 201102Z 2011/2106 23010KT P6SM OVC100
     FM201200 26010KT P6SM OVC035
     FM201400 29015G20KT P6SM OVC020
     FM202000 29015G20KT P6SM OVC035
     FM210100 31009KT P6SM BKN035=

USA.gov is the U.S. government's official web portal to all federal, state and local government web resources and services.